Hawley, Minnesota
Current Conditions -  °F | °C
As of 7:34 AM on Tuesday 21 Oct 2014 (Local Time) from KJKJ Reporting Station
Clear Clear  
Wind Chill: 37°   Ceiling: Unl
Heat Index: 43°   Visibility: 10mi
Dew Point: 43°   Wind: 10mph
Humidity: 100%   Direction: 140°SE
Pressure: 30.05"   Gusts: 16mph
Location:  46.88°N, 96.32°W
Report Text: KJKJ 211234Z AUTO 14009G14KT 10SM CLR 06/06 A3005 RMK AO2
Loading
Personal Weather Stations






























Interactive Weather Map
Tropical Storm Tracking
New forecast layout! Learn more

10-Day Weather Forecast

Advertisements
Track Severe Weather on mobile